Time;durP1;ratioP1;P1;durP2;ratioP2;P2;SDS_P1;SDS_P2;PMS_P1;PMS_P2;Temp;Humidity;BMP_temperature;BMP_pressure;BME280_temperature;BME280_humidity;BME280_pressure;Samples;Min_cycle;Max_cycle;Signal;HPM_P1;HPM_P2
2021/07/01 00:02:14;;;;;;;1.23;0.90;;;;;;;19.98;67.72;99081.66;5112241;27;20839;-69
2021/07/01 00:04:54;;;;;;;2.22;1.10;;;;;;;19.87;67.82;99069.19;5145190;27;1430075;-69
2021/07/01 00:07:35;;;;;;;3.88;1.10;;;;;;;19.85;67.83;99063.25;5133028;27;20368;-69
2021/07/01 00:10:20;;;;;;;0.95;0.90;;;;;;;19.80;68.14;99060.03;5132236;27;20367;-69
2021/07/01 00:13:01;;;;;;;2.28;1.10;;;;;;;19.73;68.11;99063.84;5132998;27;20376;-68
2021/07/01 00:15:43;;;;;;;1.60;0.90;;;;;;;19.75;68.16;99071.53;5133035;27;20372;-70
2021/07/01 00:18:24;;;;;;;2.10;1.05;;;;;;;19.76;67.93;99074.06;5132824;27;20360;-69
2021/07/01 00:21:06;;;;;;;1.08;0.85;;;;;;;19.78;67.94;99051.53;5132555;27;20372;-69
2021/07/01 00:23:47;;;;;;;1.55;1.00;;;;;;;19.76;67.81;99048.16;5132956;27;20690;-69
2021/07/01 00:26:28;;;;;;;2.15;1.00;;;;;;;19.65;67.95;99054.78;5133020;27;20690;-69
2021/07/01 00:29:10;;;;;;;1.40;1.00;;;;;;;19.57;68.00;99060.31;5132519;27;20864;-69
2021/07/01 00:31:51;;;;;;;1.70;1.00;;;;;;;19.55;68.16;99064.72;5132998;27;20364;-70
2021/07/01 00:34:33;;;;;;;1.23;0.98;;;;;;;19.51;68.17;99067.53;5133010;27;20387;-69
2021/07/01 00:37:15;;;;;;;1.52;0.93;;;;;;;19.46;68.20;99064.31;5133029;27;20372;-69
2021/07/01 00:39:57;;;;;;;1.88;1.10;;;;;;;19.44;68.30;99058.34;5132309;27;20377;-68
2021/07/01 00:42:39;;;;;;;1.38;0.88;;;;;;;19.44;68.24;99056.59;5133032;27;20367;-70
2021/07/01 00:45:21;;;;;;;1.05;0.93;;;;;;;19.52;67.93;99054.50;5133052;27;20371;-70
2021/07/01 00:48:03;;;;;;;1.38;0.98;;;;;;;19.47;68.06;99056.47;5133047;27;20367;-70
2021/07/01 00:50:46;;;;;;;1.83;0.98;;;;;;;19.51;68.02;99065.75;5133046;27;20368;-68
2021/07/01 00:53:29;;;;;;;1.35;0.85;;;;;;;19.51;67.94;99068.34;5132430;27;20376;-69
2021/07/01 00:56:11;;;;;;;1.17;0.95;;;;;;;19.47;68.17;99066.81;5132976;27;20359;-69
2021/07/01 00:58:54;;;;;;;1.60;1.00;;;;;;;19.40;68.18;99060.25;5145785;27;1413199;-69
2021/07/01 01:01:37;;;;;;;1.02;0.90;;;;;;;19.32;68.44;99065.75;5132964;27;20372;-69
2021/07/01 01:04:19;;;;;;;1.00;0.80;;;;;;;19.29;68.32;99057.31;5132383;27;20360;-69
2021/07/01 01:07:00;;;;;;;1.95;1.00;;;;;;;19.22;68.52;99055.88;5132975;27;20368;-69
2021/07/01 01:09:44;;;;;;;1.40;0.90;;;;;;;19.16;68.63;99051.00;5132998;27;20356;-69
2021/07/01 01:12:26;;;;;;;1.08;0.70;;;;;;;19.08;68.87;99047.91;5133011;27;20379;-68
2021/07/01 01:15:11;;;;;;;1.10;0.80;;;;;;;19.07;68.99;99056.59;5132141;27;20410;-69
2021/07/01 01:17:54;;;;;;;1.55;1.00;;;;;;;18.99;69.15;99050.91;5132935;27;20367;-69
2021/07/01 01:20:35;;;;;;;1.00;0.90;;;;;;;18.96;69.31;99045.88;5133025;27;20360;-67
2021/07/01 01:23:17;;;;;;;0.80;0.80;;;;;;;18.97;69.19;99060.50;5133047;27;20378;-68
2021/07/01 01:26:02;;;;;;;1.63;0.90;;;;;;;18.85;69.51;99061.03;5133240;27;20372;-69
2021/07/01 01:28:55;;;;;;;1.27;0.90;;;;;;;18.84;69.78;99069.69;5132227;27;20725;-69
2021/07/01 01:31:39;;;;;;;3.10;1.00;;;;;;;18.80;69.78;99062.97;5133045;27;20370;-69
2021/07/01 01:34:20;;;;;;;1.30;0.90;;;;;;;18.78;69.86;99049.28;5132990;27;20413;-69
2021/07/01 01:37:01;;;;;;;1.25;0.90;;;;;;;18.79;70.00;99045.81;5132984;27;20722;-69
2021/07/01 01:39:48;;;;;;;0.90;0.80;;;;;;;18.91;69.81;99045.25;5133004;27;20354;-69
2021/07/01 01:42:31;;;;;;;1.50;1.00;;;;;;;18.98;69.36;99036.31;5132663;27;20372;-68
2021/07/01 01:45:12;;;;;;;2.13;0.95;;;;;;;19.03;69.22;99039.50;5132934;27;20853;-69
2021/07/01 01:47:55;;;;;;;1.55;0.90;;;;;;;19.05;68.90;99037.72;5133004;27;20367;-69
2021/07/01 01:50:37;;;;;;;1.25;1.00;;;;;;;18.95;69.15;99041.63;5132979;27;20379;-69
2021/07/01 01:53:18;;;;;;;1.38;0.88;;;;;;;18.73;69.64;99032.25;5132505;27;20368;-68
2021/07/01 01:55:59;;;;;;;2.15;1.00;;;;;;;18.67;69.95;99040.25;5132982;27;20853;-69
2021/07/01 01:58:46;;;;;;;3.00;1.00;;;;;;;18.60;70.18;99036.25;5133010;27;20368;-69
2021/07/01 02:01:54;;;;;;;1.92;1.00;;;;;;;18.54;70.60;99041.69;5132889;27;20721;-68
2021/07/01 02:04:47;;;;;;;1.45;1.10;;;;;;;18.71;70.51;99044.38;5132910;27;20372;-69
2021/07/01 02:07:28;;;;;;;0.98;0.85;;;;;;;18.77;70.19;99043.28;5133037;27;20382;-69
2021/07/01 02:10:24;;;;;;;2.33;1.20;;;;;;;18.68;70.34;99048.84;5132906;27;20394;-69
2021/07/01 02:13:10;;;;;;;1.02;0.88;;;;;;;18.59;70.53;99050.09;5132719;27;20390;-68
2021/07/01 02:16:15;;;;;;;1.55;1.00;;;;;;;18.76;70.49;99056.28;5132927;27;20372;-69
2021/07/01 02:18:55;;;;;;;1.70;0.98;;;;;;;18.72;70.12;99065.91;5145259;27;1426371;-68
2021/07/01 02:21:38;;;;;;;1.35;0.98;;;;;;;18.88;69.95;99066.06;5133024;27;20717;-69
2021/07/01 02:24:20;;;;;;;1.63;0.90;;;;;;;19.00;69.60;99065.53;5132279;27;20375;-69
2021/07/01 02:27:01;;;;;;;3.40;1.20;;;;;;;19.11;69.16;99077.06;5133031;27;20363;-68
2021/07/01 02:29:43;;;;;;;0.93;0.80;;;;;;;19.09;68.99;99085.81;5133063;27;20352;-68
2021/07/01 02:32:27;;;;;;;2.03;1.00;;;;;;;19.08;69.27;99084.13;5132998;27;20422;-68
2021/07/01 02:35:10;;;;;;;1.23;0.90;;;;;;;18.93;69.57;99087.41;5132034;27;20383;-69
2021/07/01 02:38:16;;;;;;;1.27;1.00;;;;;;;18.73;70.29;99089.13;5153606;27;20449;-68
2021/07/01 02:41:05;;;;;;;1.67;0.98;;;;;;;18.74;71.12;99083.03;5132933;27;20371;-68
2021/07/01 02:43:53;;;;;;;2.13;1.35;;;;;;;18.74;71.04;99077.00;5133065;27;20368;-70
2021/07/01 02:46:56;;;;;;;3.13;1.00;;;;;;;18.77;71.36;99079.47;5132823;27;20409;-70
2021/07/01 02:49:44;;;;;;;1.42;0.98;;;;;;;18.78;71.01;99080.31;5132973;27;20375;-70
2021/07/01 02:52:33;;;;;;;2.40;1.13;;;;;;;18.82;71.07;99076.69;5132950;27;20391;-70
2021/07/01 02:55:15;;;;;;;1.40;0.90;;;;;;;18.77;70.89;99073.44;5133058;27;20382;-70
2021/07/01 02:57:59;;;;;;;1.70;1.05;;;;;;;18.61;71.03;99074.13;5133080;27;20368;-69
2021/07/01 03:00:41;;;;;;;2.53;0.93;;;;;;;18.52;71.46;99084.84;5133012;27;20362;-68
2021/07/01 03:03:22;;;;;;;1.65;1.10;;;;;;;18.60;71.49;99103.47;5132193;27;20384;-68
2021/07/01 03:06:15;;;;;;;2.50;1.13;;;;;;;18.51;71.42;99111.59;5132639;27;20376;-68
2021/07/01 03:08:58;;;;;;;3.28;1.20;;;;;;;18.51;71.69;99103.84;5133244;27;20372;-69
2021/07/01 03:11:41;;;;;;;2.50;1.25;;;;;;;18.44;72.40;99102.41;5133004;27;20372;-70
2021/07/01 03:14:23;;;;;;;2.30;1.25;;;;;;;18.42;73.22;99106.78;5132227;27;20891;-68
2021/07/01 03:17:06;;;;;;;2.25;1.05;;;;;;;18.40;73.76;99102.59;5132994;27;20363;-68
2021/07/01 03:19:47;;;;;;;2.80;1.40;;;;;;;18.35;74.11;99107.13;5132975;27;20368;-68
2021/07/01 03:22:40;;;;;;;4.00;1.40;;;;;;;18.48;74.60;99098.81;5132657;27;20911;-68
2021/07/01 03:25:21;;;;;;;2.00;1.10;;;;;;;18.57;74.19;99103.59;5133015;27;20712;-68
2021/07/01 03:28:04;;;;;;;2.45;1.40;;;;;;;18.36;73.82;99104.44;5132972;27;20825;-69
2021/07/01 03:30:47;;;;;;;4.82;1.10;;;;;;;18.24;74.33;99104.09;5133010;27;20368;-68
2021/07/01 03:33:30;;;;;;;1.80;1.20;;;;;;;18.30;74.80;99099.56;5132487;27;20375;-69
2021/07/01 03:36:11;;;;;;;1.52;1.17;;;;;;;18.37;74.96;99098.41;5133001;27;20374;-68
2021/07/01 03:39:05;;;;;;;2.15;1.20;;;;;;;18.43;74.67;99105.03;5132874;27;20395;-70
2021/07/01 03:41:58;;;;;;;1.83;1.20;;;;;;;18.35;74.64;99107.97;5132870;27;20372;-69
2021/07/01 03:44:41;;;;;;;1.95;1.20;;;;;;;18.35;74.64;99113.13;5132059;27;20699;-67
2021/07/01 03:47:22;;;;;;;1.80;1.10;;;;;;;18.45;74.56;99118.75;5132950;27;20406;-68
2021/07/01 03:50:05;;;;;;;2.15;1.20;;;;;;;18.39;74.41;99112.09;5132954;27;20360;-68
2021/07/01 03:52:58;;;;;;;1.52;1.10;;;;;;;18.28;74.90;99111.69;5132811;27;20375;-69
2021/07/01 03:55:40;;;;;;;1.70;1.08;;;;;;;18.33;74.96;99120.06;5133000;27;20368;-69
2021/07/01 03:58:21;;;;;;;2.80;1.15;;;;;;;18.41;74.84;99127.50;5132983;27;20358;-69
2021/07/01 04:01:17;;;;;;;2.20;1.10;;;;;;;18.36;74.52;99124.28;5132840;27;20387;-68
2021/07/01 04:03:58;;;;;;;1.92;1.10;;;;;;;18.33;74.99;99114.91;5133035;27;20833;-68
2021/07/01 04:06:39;;;;;;;1.58;1.20;;;;;;;18.18;75.01;99112.97;5132948;27;20378;-69
2021/07/01 04:09:21;;;;;;;1.83;1.10;;;;;;;18.27;75.57;99122.91;5132151;27;20376;-69
2021/07/01 04:12:26;;;;;;;1.23;1.10;;;;;;;18.42;75.39;99122.31;5132950;27;20372;-69
2021/07/01 04:15:34;;;;;;;2.35;1.40;;;;;;;18.43;75.37;99121.38;5132857;27;20396;-69
2021/07/01 04:18:26;;;;;;;2.38;1.20;;;;;;;18.44;75.55;99125.66;5132904;27;20383;-68
2021/07/01 04:21:19;;;;;;;1.33;1.00;;;;;;;18.53;75.00;99125.31;5132931;27;20371;-69
2021/07/01 04:24:11;;;;;;;3.25;1.20;;;;;;;18.62;74.28;99132.66;5132848;27;20379;-68
2021/07/01 04:26:55;;;;;;;2.47;1.20;;;;;;;18.67;73.28;99127.28;5132987;27;20351;-68
2021/07/01 04:29:42;;;;;;;1.80;1.00;;;;;;;18.77;72.95;99120.84;5133209;27;20868;-69
2021/07/01 04:32:28;;;;;;;2.00;1.00;;;;;;;18.77;72.55;99115.66;5132736;27;20356;-69
2021/07/01 04:35:10;;;;;;;1.40;1.00;;;;;;;18.80;72.29;99119.88;5132954;27;20356;-69
2021/07/01 04:37:52;;;;;;;1.70;1.10;;;;;;;18.86;72.04;99124.78;5132935;27;20733;-68
2021/07/01 04:40:34;;;;;;;1.40;1.00;;;;;;;18.94;71.80;99125.28;5132959;27;20360;-69
2021/07/01 04:43:15;;;;;;;1.30;0.90;;;;;;;18.81;71.46;99137.06;5132970;27;20378;-69
2021/07/01 04:45:57;;;;;;;1.88;1.08;;;;;;;18.71;71.57;99137.44;5132935;27;20387;-69
2021/07/01 04:48:38;;;;;;;1.42;0.90;;;;;;;18.90;71.26;99131.50;5133008;27;20372;-69
2021/07/01 04:51:20;;;;;;;2.38;1.00;;;;;;;18.87;71.14;99131.63;5132877;27;20356;-68
2021/07/01 04:54:12;;;;;;;1.50;1.05;;;;;;;18.91;71.05;99133.19;5132906;27;20376;-68
2021/07/01 04:57:05;;;;;;;2.47;1.30;;;;;;;18.83;70.77;99130.09;5132620;27;20368;-69
2021/07/01 04:59:48;;;;;;;3.10;1.30;;;;;;;19.01;70.75;99131.88;5132951;27;20848;-69
2021/07/01 05:02:53;;;;;;;1.40;1.00;;;;;;;19.41;69.71;99133.56;5132974;27;20374;-69
2021/07/01 05:05:39;;;;;;;1.98;1.13;;;;;;;19.90;68.60;99123.47;5132971;27;20371;-69
2021/07/01 05:08:22;;;;;;;2.53;1.13;;;;;;;20.41;67.24;99114.09;5132369;27;20778;-69
2021/07/01 05:11:07;;;;;;;2.22;1.27;;;;;;;20.66;65.76;99117.97;5132969;27;20364;-69
2021/07/01 05:13:48;;;;;;;2.17;1.10;;;;;;;20.78;65.16;99113.91;5132949;27;20368;-69
2021/07/01 05:16:30;;;;;;;2.13;1.10;;;;;;;21.01;64.69;99118.78;5132914;27;20364;-69
2021/07/01 05:19:12;;;;;;;2.03;1.08;;;;;;;21.30;63.84;99123.31;5132194;27;20383;-69
2021/07/01 05:22:16;;;;;;;3.10;1.00;;;;;;;21.52;62.62;99122.16;5132869;27;20372;-69
2021/07/01 05:25:10;;;;;;;2.22;0.80;;;;;;;21.33;62.51;99132.69;5132889;27;20375;-69
2021/07/01 05:28:09;;;;;;;1.58;0.95;;;;;;;20.92;62.84;99134.81;5132888;27;20386;-69
2021/07/01 05:31:05;;;;;;;2.08;1.10;;;;;;;20.48;63.94;99142.25;5132888;27;20372;-68
2021/07/01 05:34:11;;;;;;;1.23;0.90;;;;;;;20.52;64.30;99148.09;5132108;27;20380;-69
2021/07/01 05:36:52;;;;;;;1.67;1.15;;;;;;;20.52;63.92;99148.09;5132899;27;20713;-69
2021/07/01 05:39:37;;;;;;;1.45;1.00;;;;;;;20.84;63.33;99149.94;5132969;27;20355;-69
2021/07/01 05:42:18;;;;;;;1.13;0.93;;;;;;;21.11;63.23;99152.91;5145495;27;1417869;-69
2021/07/01 05:45:00;;;;;;;3.38;1.10;;;;;;;21.38;62.47;99147.09;5132927;27;20710;-69
2021/07/01 05:47:42;;;;;;;1.48;1.10;;;;;;;21.70;62.04;99147.13;5132348;27;20376;-69
2021/07/01 05:50:24;;;;;;;1.02;0.90;;;;;;;22.15;60.95;99149.78;5132944;27;20364;-69
2021/07/01 05:53:06;;;;;;;1.25;0.90;;;;;;;22.39;60.00;99155.38;5132986;27;20698;-69
2021/07/01 05:55:48;;;;;;;2.20;0.90;;;;;;;22.39;59.67;99148.41;5132936;27;20360;-69
2021/07/01 05:58:30;;;;;;;1.33;0.98;;;;;;;22.51;59.16;99152.06;5132610;27;20833;-70
2021/07/01 06:01:13;;;;;;;1.45;0.98;;;;;;;22.67;58.69;99148.50;5133174;27;20368;-69
2021/07/01 06:03:53;;;;;;;1.63;0.90;;;;;;;22.61;58.74;99154.09;5145306;27;1424475;-69
2021/07/01 06:06:55;;;;;;;2.03;1.10;;;;;;;22.70;58.37;99151.88;5132620;27;20384;-69
2021/07/01 06:09:43;;;;;;;2.60;1.20;;;;;;;22.83;58.00;99158.88;5132634;27;20376;-70
2021/07/01 06:12:36;;;;;;;1.17;0.90;;;;;;;23.18;57.29;99151.56;5132087;27;20401;-69
2021/07/01 06:15:19;;;;;;;3.00;1.20;;;;;;;23.54;55.94;99170.19;5132880;27;20375;-69
2021/07/01 06:18:01;;;;;;;3.38;1.20;;;;;;;23.63;55.51;99161.81;5133001;27;20663;-69
2021/07/01 06:20:42;;;;;;;2.45;1.00;;;;;;;23.82;55.22;99159.72;5132524;27;20372;-69
2021/07/01 06:23:23;;;;;;;1.77;1.00;;;;;;;24.11;54.27;99157.06;5132996;27;20368;-69
2021/07/01 06:26:04;;;;;;;2.47;0.98;;;;;;;24.28;53.30;99157.63;5132071;27;20372;-69
2021/07/01 06:28:46;;;;;;;1.33;1.00;;;;;;;23.92;53.86;99157.38;5132719;27;20360;-69
2021/07/01 06:31:27;;;;;;;1.67;0.90;;;;;;;23.73;54.80;99170.72;5132982;27;20383;-69
2021/07/01 06:34:09;;;;;;;3.55;1.00;;;;;;;23.94;54.12;99171.16;5132435;27;20372;-69
2021/07/01 06:36:57;;;;;;;1.42;0.82;;;;;;;23.61;54.55;99168.88;5133005;27;20356;-69
2021/07/01 06:39:52;;;;;;;2.78;1.00;;;;;;;23.12;55.34;99159.75;5131989;27;20431;-69
2021/07/01 06:42:49;;;;;;;3.50;0.77;;;;;;;23.24;55.97;99172.88;5132256;27;20380;-69
2021/07/01 06:45:42;;;;;;;2.42;0.88;;;;;;;23.63;55.49;99177.44;5132147;27;20391;-69
2021/07/01 06:48:37;;;;;;;2.35;1.10;;;;;;;24.05;54.12;99178.28;5133358;27;20376;-69
2021/07/01 06:51:34;;;;;;;1.15;0.90;;;;;;;24.28;53.94;99175.91;5132431;27;20383;-69
2021/07/01 06:54:41;;;;;;;1.25;0.90;;;;;;;24.63;53.08;99186.66;5091408;28;20379;-69
2021/07/01 06:57:29;;;;;;;1.23;0.90;;;;;;;24.75;52.74;99185.00;5133261;27;20729;-70
2021/07/01 07:00:12;;;;;;;1.52;0.90;;;;;;;24.94;51.91;99178.47;5132161;27;20388;-69
2021/07/01 07:02:55;;;;;;;1.20;0.85;;;;;;;25.12;51.22;99189.47;5132950;27;20364;-69
2021/07/01 07:05:36;;;;;;;2.05;0.80;;;;;;;25.18;51.18;99189.88;5132146;27;20884;-69
2021/07/01 07:08:18;;;;;;;3.22;1.38;;;;;;;25.26;50.60;99182.38;5132043;27;20372;-70
2021/07/01 07:11:00;;;;;;;1.95;0.80;;;;;;;25.19;51.11;99191.53;5132232;27;20432;-69
2021/07/01 07:13:42;;;;;;;3.30;0.95;;;;;;;24.91;51.93;99191.75;5132223;27;20426;-69
2021/07/01 07:16:24;;;;;;;2.05;1.25;;;;;;;24.92;51.92;99185.59;5132777;27;20401;-68
2021/07/01 07:19:07;;;;;;;1.35;0.95;;;;;;;25.12;51.36;99184.25;5132728;27;20367;-69
2021/07/01 07:21:52;;;;;;;1.75;0.93;;;;;;;25.35;51.15;99174.81;5132422;27;20371;-69
2021/07/01 07:24:36;;;;;;;3.08;0.88;;;;;;;25.45;50.58;99181.97;5132910;27;20367;-69
2021/07/01 07:27:24;;;;;;;1.30;0.93;;;;;;;25.62;49.66;99173.78;5132367;27;20368;-69
2021/07/01 07:30:07;;;;;;;2.13;1.13;;;;;;;25.65;49.53;99177.97;5131958;27;20741;-69
2021/07/01 07:32:51;;;;;;;1.15;0.80;;;;;;;25.61;49.41;99171.25;5132391;27;20395;-69
2021/07/01 07:35:33;;;;;;;0.85;0.80;;;;;;;25.83;48.93;99176.66;5131771;27;20392;-69
2021/07/01 07:38:18;;;;;;;1.08;0.90;;;;;;;25.79;48.58;99177.81;5131894;27;20940;-70
2021/07/01 07:41:00;;;;;;;1.30;1.00;;;;;;;25.70;48.13;99176.69;5132170;27;20881;-69
2021/07/01 07:43:42;;;;;;;2.15;0.70;;;;;;;25.81;47.81;99179.38;5132132;27;20379;-69
2021/07/01 07:46:26;;;;;;;1.02;0.80;;;;;;;25.89;47.13;99182.28;5132814;27;20721;-70
2021/07/01 07:49:07;;;;;;;1.20;0.85;;;;;;;25.88;46.72;99182.38;5131929;27;20756;-69
2021/07/01 07:51:51;;;;;;;1.13;0.80;;;;;;;25.84;46.66;99188.78;5132384;27;20496;-69
2021/07/01 07:54:37;;;;;;;2.53;0.80;;;;;;;25.78;46.22;99190.06;5132961;27;20362;-69
2021/07/01 07:57:22;;;;;;;1.58;0.95;;;;;;;25.98;46.56;99193.88;5132069;27;20382;-70
2021/07/01 08:00:05;;;;;;;1.55;0.80;;;;;;;26.39;45.35;99186.53;5132531;27;20363;-69
2021/07/01 08:02:55;;;;;;;1.20;0.90;;;;;;;26.50;44.44;99183.94;5132890;27;20395;-70
2021/07/01 08:05:37;;;;;;;1.38;0.85;;;;;;;26.55;45.40;99173.97;5132885;27;20714;-70
2021/07/01 08:08:19;;;;;;;1.08;0.70;;;;;;;26.67;44.63;99174.00;5131984;27;20375;-70
2021/07/01 08:11:02;;;;;;;2.53;0.77;;;;;;;26.42;44.51;99174.97;5132867;27;20879;-70
2021/07/01 08:13:44;;;;;;;1.45;0.82;;;;;;;26.54;45.23;99174.06;5131783;27;20364;-69
2021/07/01 08:16:25;;;;;;;1.17;0.82;;;;;;;26.82;44.40;99180.75;5132300;27;20376;-70
2021/07/01 08:19:07;;;;;;;1.20;0.70;;;;;;;26.64;43.62;99175.06;5132099;27;20375;-68
2021/07/01 08:21:48;;;;;;;1.50;0.80;;;;;;;26.84;43.72;99171.81;5131869;27;20387;-70
2021/07/01 08:24:30;;;;;;;0.93;0.70;;;;;;;26.92;43.74;99169.44;5132010;27;20359;-69
2021/07/01 08:27:12;;;;;;;1.90;0.70;;;;;;;26.53;44.20;99168.00;5143558;27;1467004;-70
2021/07/01 08:29:54;;;;;;;0.73;0.70;;;;;;;26.79;42.95;99167.88;5131927;27;20360;-69
2021/07/01 08:32:37;;;;;;;1.33;0.75;;;;;;;26.73;43.06;99163.06;5132130;27;20362;-69
2021/07/01 08:35:23;;;;;;;0.60;0.60;;;;;;;26.95;42.98;99163.13;5132093;27;20368;-70
2021/07/01 08:38:05;;;;;;;0.70;0.65;;;;;;;27.14;42.35;99166.84;5132152;27;20375;-70
2021/07/01 08:40:48;;;;;;;2.25;0.80;;;;;;;27.66;41.02;99165.47;5132975;27;20871;-69
2021/07/01 08:43:42;;;;;;;1.88;0.80;;;;;;;27.39;40.76;99168.47;5132177;27;20850;-69
2021/07/01 08:46:26;;;;;;;1.13;0.70;;;;;;;27.46;40.42;99174.88;5132056;27;20418;-70
2021/07/01 08:49:09;;;;;;;2.60;0.80;;;;;;;27.70;40.17;99172.97;5152642;27;20371;-70
2021/07/01 08:51:51;;;;;;;2.05;0.70;;;;;;;28.01;39.88;99170.53;5132091;27;20379;-69
2021/07/01 08:54:34;;;;;;;1.05;0.70;;;;;;;28.04;39.81;99170.31;5132932;27;20364;-69
2021/07/01 08:57:17;;;;;;;0.88;0.80;;;;;;;27.95;40.13;99171.03;5132961;27;20372;-69
2021/07/01 09:00:05;;;;;;;1.05;0.82;;;;;;;27.78;39.91;99170.59;5132412;27;20734;-70
2021/07/01 09:03:04;;;;;;;0.95;0.70;;;;;;;27.75;39.05;99176.06;5133021;27;20360;-68
2021/07/01 09:05:47;;;;;;;3.83;0.70;;;;;;;27.72;39.75;99171.06;5106945;27;20371;-69
2021/07/01 09:08:31;;;;;;;0.60;0.60;;;;;;;27.83;39.71;99173.66;5132435;27;20857;-69
2021/07/01 09:11:19;;;;;;;1.70;0.60;;;;;;;28.21;39.48;99177.66;5125132;27;20404;-69
2021/07/01 09:14:05;;;;;;;1.15;0.70;;;;;;;27.89;39.80;99178.41;5138543;27;20390;-69
2021/07/01 09:16:46;;;;;;;1.45;0.90;;;;;;;27.76;39.50;99182.97;5131358;27;20911;-69
2021/07/01 09:19:29;;;;;;;0.93;0.60;;;;;;;28.13;38.43;99190.56;5129603;27;20391;-69
2021/07/01 09:22:12;;;;;;;0.93;0.70;;;;;;;28.05;38.13;99185.13;5125511;27;20387;-69
2021/07/01 09:24:54;;;;;;;1.30;0.70;;;;;;;28.08;38.24;99184.84;5131919;27;20391;-69
2021/07/01 09:27:40;;;;;;;1.05;0.60;;;;;;;28.24;37.96;99186.09;5131437;27;20403;-69
2021/07/01 09:30:25;;;;;;;1.25;0.70;;;;;;;27.52;39.05;99184.88;5132066;27;20757;-69
2021/07/01 09:33:08;;;;;;;0.68;0.50;;;;;;;27.33;39.75;99182.00;5132117;27;20379;-68
2021/07/01 09:35:50;;;;;;;0.70;0.70;;;;;;;27.60;39.25;99177.25;5133527;27;1448215;-68
2021/07/01 09:38:34;;;;;;;0.80;0.70;;;;;;;27.98;37.87;99176.03;5142696;27;20421;-68
2021/07/01 09:41:17;;;;;;;0.82;0.60;;;;;;;28.30;37.49;99187.41;5131410;27;20398;-69
2021/07/01 09:44:00;;;;;;;1.10;0.70;;;;;;;28.46;36.77;99187.81;5131661;27;20394;-70
2021/07/01 09:46:48;;;;;;;0.68;0.68;;;;;;;28.58;36.41;99182.41;5132349;27;20384;-69
2021/07/01 09:49:33;;;;;;;0.98;0.73;;;;;;;28.81;35.52;99167.41;5132942;27;20364;-71
2021/07/01 09:52:16;;;;;;;1.98;0.70;;;;;;;28.86;36.83;99165.22;5132091;27;20760;-70
2021/07/01 09:55:02;;;;;;;2.53;0.75;;;;;;;28.05;37.20;99172.00;5132304;27;20380;-70
2021/07/01 09:57:51;;;;;;;0.93;0.70;;;;;;;27.38;39.41;99165.97;5132157;27;20386;-69
2021/07/01 10:00:32;;;;;;;1.08;0.70;;;;;;;27.31;38.32;99155.06;5132605;27;20382;-69
2021/07/01 10:03:15;;;;;;;0.93;0.70;;;;;;;27.50;37.83;99165.00;5132853;27;20374;-70
2021/07/01 10:05:57;;;;;;;2.25;0.73;;;;;;;27.37;38.08;99169.50;5132184;27;20368;-69
2021/07/01 10:08:42;;;;;;;0.82;0.60;;;;;;;27.08;38.42;99172.56;5132003;27;20699;-69
2021/07/01 10:11:36;;;;;;;0.90;0.68;;;;;;;27.57;37.47;99171.44;5091198;27;20756;-71
2021/07/01 10:14:19;;;;;;;1.40;0.70;;;;;;;27.65;38.20;99169.88;5132270;27;20430;-70
2021/07/01 10:17:11;;;;;;;1.35;0.70;;;;;;;27.30;39.28;99163.91;5132356;27;20731;-69
2021/07/01 10:20:08;;;;;;;0.65;0.60;;;;;;;27.58;38.08;99165.22;5133123;27;20384;-69
2021/07/01 10:22:50;;;;;;;0.85;0.75;;;;;;;27.80;37.88;99170.44;5132103;27;20177;-70
2021/07/01 10:25:34;;;;;;;2.72;0.85;;;;;;;27.63;38.20;99156.06;5132324;27;20895;-72
2021/07/01 10:28:17;;;;;;;5.22;0.90;;;;;;;28.00;37.90;99159.25;5142953;27;1488416;-69
2021/07/01 10:31:01;;;;;;;1.35;0.70;;;;;;;28.08;37.62;99162.06;5132091;27;20374;-70
2021/07/01 10:33:44;;;;;;;0.60;0.60;;;;;;;28.34;37.80;99157.31;5132944;27;20883;-69
2021/07/01 10:36:27;;;;;;;0.60;0.60;;;;;;;28.49;37.38;99162.16;5091285;27;20385;-70
2021/07/01 10:39:09;;;;;;;0.82;0.70;;;;;;;28.46;37.39;99167.66;5132562;27;20376;-70
2021/07/01 10:42:00;;;;;;;1.00;0.70;;;;;;;28.20;37.35;99165.47;5132922;27;20371;-69
2021/07/01 10:44:42;;;;;;;0.93;0.60;;;;;;;28.60;36.95;99161.31;5132043;27;20390;-69
2021/07/01 10:47:28;;;;;;;0.77;0.65;;;;;;;29.04;36.54;99171.53;5028419;28;20383;-69
2021/07/01 10:50:30;;;;;;;2.83;0.60;;;;;;;29.09;36.06;99165.88;5132657;27;20372;-70
2021/07/01 10:53:31;;;;;;;1.20;0.52;;;;;;;28.45;37.31;99170.41;5131977;27;20116;-68
2021/07/01 10:56:40;;;;;;;0.70;0.50;;;;;;;27.99;38.64;99173.28;5132441;27;20364;-69
2021/07/01 10:59:47;;;;;;;0.70;0.60;;;;;;;28.40;38.28;99177.81;5132240;27;20135;-70
2021/07/01 11:02:31;;;;;;;0.80;0.60;;;;;;;27.79;38.57;99180.09;5132828;27;20372;-69
2021/07/01 11:05:14;;;;;;;0.60;0.60;;;;;;;28.05;37.93;99172.00;5132437;27;20845;-69
2021/07/01 11:07:55;;;;;;;1.50;0.60;;;;;;;27.77;38.24;99179.41;5132044;27;20387;-69
2021/07/01 11:10:39;;;;;;;0.50;0.50;;;;;;;27.23;39.44;99173.19;5132247;27;20367;-70
2021/07/01 11:13:24;;;;;;;0.85;0.60;;;;;;;26.80;39.66;99170.38;5132621;27;20375;-70
2021/07/01 11:16:08;;;;;;;0.70;0.60;;;;;;;26.66;39.92;99169.72;5132598;27;20372;-70
2021/07/01 11:18:51;;;;;;;0.77;0.70;;;;;;;26.73;40.18;99169.13;5132049;27;20376;-69
2021/07/01 11:21:34;;;;;;;1.00;0.70;;;;;;;26.69;40.66;99167.69;5132041;27;20372;-70
2021/07/01 11:24:17;;;;;;;2.20;0.93;;;;;;;27.13;39.34;99174.84;5132114;27;20390;-69
2021/07/01 11:27:02;;;;;;;0.95;0.70;;;;;;;27.43;39.33;99182.97;5131958;27;20379;-69
2021/07/01 11:29:45;;;;;;;0.70;0.50;;;;;;;27.47;39.58;99176.56;5131938;27;20376;-69
2021/07/01 11:32:30;;;;;;;2.10;1.45;;;;;;;27.22;39.54;99176.75;5132322;27;20372;-70
2021/07/01 11:35:24;;;;;;;0.60;0.60;;;;;;;26.70;39.62;99174.59;5132446;27;20386;-69
2021/07/01 11:38:06;;;;;;;0.60;0.60;;;;;;;27.06;39.67;99181.50;5132978;27;20379;-69
2021/07/01 11:40:47;;;;;;;0.75;0.50;;;;;;;28.12;38.67;99178.41;5111531;27;20888;-70
2021/07/01 11:43:29;;;;;;;0.98;0.70;;;;;;;28.93;37.11;99182.13;5132532;27;20368;-68
2021/07/01 11:46:12;;;;;;;1.10;0.70;;;;;;;28.58;37.01;99181.56;5132997;27;20352;-69
2021/07/01 11:48:54;;;;;;;0.73;0.55;;;;;;;27.98;38.32;99178.66;5132260;27;20368;-70
2021/07/01 11:51:35;;;;;;;2.05;0.65;;;;;;;27.27;39.25;99188.56;5132049;27;20380;-69
2021/07/01 11:54:20;;;;;;;2.33;0.70;;;;;;;26.89;39.71;99195.03;5131968;27;20860;-69
2021/07/01 11:57:03;;;;;;;2.95;0.68;;;;;;;26.57;39.95;99198.25;5131845;27;20368;-70
2021/07/01 11:59:45;;;;;;;2.42;0.70;;;;;;;26.60;40.31;99195.41;5132144;27;20713;-69
2021/07/01 12:02:26;;;;;;;2.90;1.08;;;;;;;27.20;40.04;99194.38;5131937;27;20368;-69
2021/07/01 12:05:10;;;;;;;2.15;1.00;;;;;;;27.64;39.24;99191.78;5132116;27;20729;-69
2021/07/01 12:07:52;;;;;;;3.92;0.80;;;;;;;27.71;39.77;99190.38;5132124;27;20356;-70
2021/07/01 12:10:34;;;;;;;1.13;0.73;;;;;;;27.28;38.78;99195.44;5131967;27;20756;-70
2021/07/01 12:13:35;;;;;;;0.90;0.70;;;;;;;26.96;39.25;99201.50;5132412;27;20347;-70
2021/07/01 12:16:18;;;;;;;1.50;0.70;;;;;;;27.81;39.43;99196.56;5131996;27;20372;-69
2021/07/01 12:19:01;;;;;;;1.23;0.60;;;;;;;28.65;38.15;99197.69;5132085;27;20367;-69
2021/07/01 12:21:45;;;;;;;0.75;0.57;;;;;;;29.17;37.73;99192.38;5132112;27;20375;-70
2021/07/01 12:24:32;;;;;;;0.57;0.57;;;;;;;29.38;37.44;99194.97;5132158;27;20853;-69
2021/07/01 12:27:29;;;;;;;2.80;0.95;;;;;;;29.50;36.83;99192.16;5131993;27;20367;-69
2021/07/01 12:30:13;;;;;;;0.60;0.60;;;;;;;29.13;35.99;99189.16;5132615;27;20181;-70
2021/07/01 12:32:55;;;;;;;0.57;0.40;;;;;;;28.27;36.90;99198.16;5144567;27;1446414;-70
2021/07/01 12:35:42;;;;;;;1.08;0.60;;;;;;;28.60;36.77;99187.56;5132101;27;20845;-70
2021/07/01 12:38:24;;;;;;;0.70;0.70;;;;;;;28.75;36.17;99188.06;5091945;27;20379;-71
2021/07/01 12:41:07;;;;;;;1.27;0.63;;;;;;;28.62;36.29;99183.03;5132097;27;20875;-70
2021/07/01 12:44:00;;;;;;;0.80;0.60;;;;;;;29.20;35.78;99179.81;5132549;27;20368;-70
2021/07/01 12:47:08;;;;;;;0.98;0.60;;;;;;;29.51;35.76;99172.78;5132769;27;20399;-70
2021/07/01 12:49:56;;;;;;;1.20;0.55;;;;;;;28.42;36.71;99175.91;5132107;27;20376;-70
2021/07/01 12:52:41;;;;;;;0.68;0.55;;;;;;;27.72;37.99;99185.94;5132797;27;20439;-69
2021/07/01 12:55:27;;;;;;;0.60;0.60;;;;;;;28.04;37.55;99184.28;5132931;27;20368;-69
2021/07/01 12:58:08;;;;;;;0.77;0.60;;;;;;;27.95;37.60;99186.75;5131953;27;20394;-70
2021/07/01 13:00:49;;;;;;;2.63;0.60;;;;;;;28.23;37.51;99181.00;5132630;27;20687;-70